Time,TemperatureF,DewpointF,PressureIn,WindDirection,WindDirectionDegrees,WindSpeedMPH,WindSpeedGustMPH,Humidity,HourlyPrecipIn,Conditions,Clouds,dailyrainin,SoftwareType,DateUTC
2013-08-31 00:02:00,78.3,50.6,30.13,SSE,158,1.8,1.8,38,0.00,,---,0.00,VWS V14.01,2013-08-31 06:02:00,
2013-08-31 00:07:00,78.3,51.3,30.13,SSE,158,0.4,0.4,39,0.00,,---,0.00,VWS V14.01,2013-08-31 06:07:00,
2013-08-31 00:12:00,78.1,51.2,30.13,South,180,0.4,0.4,39,0.00,,---,0.00,VWS V14.01,2013-08-31 06:12:00,
2013-08-31 00:17:00,77.8,50.9,30.13,SSW,202,0.4,0.4,39,0.00,,---,0.00,VWS V14.01,2013-08-31 06:17:00,
2013-08-31 00:22:00,77.4,51.2,30.13,SSW,202,0.4,0.4,40,0.00,,---,0.00,VWS V14.01,2013-08-31 06:22:00,
2013-08-31 00:27:00,77.4,51.2,30.13,SSW,202,0.4,0.4,40,0.00,,---,0.00,VWS V14.01,2013-08-31 06:27:00,
2013-08-31 00:32:00,77.0,50.9,30.14,SSW,202,0.4,0.4,40,0.00,,---,0.00,VWS V14.01,2013-08-31 06:32:00,
2013-08-31 00:37:00,76.9,50.8,30.14,SSW,202,0.2,0.2,40,0.00,,---,0.00,VWS V14.01,2013-08-31 06:37:00,
2013-08-31 00:42:00,76.5,51.1,30.14,SSW,202,0.2,0.2,41,0.00,,---,0.00,VWS V14.01,2013-08-31 06:42:00,
2013-08-31 00:47:00,76.1,50.7,30.13,SSW,202,0.7,0.7,41,0.00,,---,0.00,VWS V14.01,2013-08-31 06:47:00,
2013-08-31 00:52:00,76.0,51.3,30.13,South,180,0.9,0.9,42,0.00,,---,0.00,VWS V14.01,2013-08-31 06:52:00,
2013-08-31 00:57:00,75.8,51.1,30.14,South,180,0.4,0.4,42,0.00,,---,0.00,VWS V14.01,2013-08-31 06:57:00,
2013-08-31 01:01:00,75.6,50.9,30.14,SSE,158,0.7,0.7,42,0.00,,---,0.00,VWS V14.01,2013-08-31 07:01:00,
2013-08-31 01:06:00,75.2,51.2,30.14,South,180,1.3,1.3,43,0.00,,---,0.00,VWS V14.01,2013-08-31 07:06:00,
2013-08-31 01:11:00,75.2,51.2,30.14,South,180,1.1,1.1,43,0.00,,---,0.00,VWS V14.01,2013-08-31 07:11:00,
2013-08-31 01:16:00,75.2,51.2,30.14,SSE,158,0.4,0.4,43,0.00,,---,0.00,VWS V14.01,2013-08-31 07:16:00,
2013-08-31 01:21:00,75.1,51.1,30.14,SSE,158,0.4,0.4,43,0.00,,---,0.00,VWS V14.01,2013-08-31 07:21:00,
2013-08-31 01:26:00,74.9,51.5,30.14,SSE,158,0.7,0.7,44,0.00,,---,0.00,VWS V14.01,2013-08-31 07:26:00,
2013-08-31 01:31:00,74.7,51.4,30.14,South,180,1.1,1.1,44,0.00,,---,0.00,VWS V14.01,2013-08-31 07:31:00,
2013-08-31 01:36:00,74.5,51.2,30.13,South,180,2.0,2.0,44,0.00,,---,0.00,VWS V14.01,2013-08-31 07:36:00,
2013-08-31 01:41:00,74.5,51.8,30.14,SSE,158,1.1,1.1,45,0.00,,---,0.00,VWS V14.01,2013-08-31 07:41:00,
2013-08-31 01:46:00,74.5,51.8,30.14,South,180,0.2,0.2,45,0.00,,---,0.00,VWS V14.01,2013-08-31 07:46:00,
2013-08-31 01:51:00,74.3,51.6,30.14,SSE,158,1.1,1.1,45,0.00,,---,0.00,VWS V14.01,2013-08-31 07:51:00,
2013-08-31 01:56:00,74.2,51.5,30.14,SSE,158,0.4,0.4,45,0.00,,---,0.00,VWS V14.01,2013-08-31 07:56:00,
2013-08-31 02:01:00,74.0,51.9,30.13,South,180,0.7,0.7,46,0.00,,---,0.00,VWS V14.01,2013-08-31 08:01:00,
2013-08-31 02:06:00,73.8,52.3,30.13,South,180,0.4,0.4,47,0.00,,---,0.00,VWS V14.01,2013-08-31 08:06:00,
2013-08-31 02:11:00,73.8,52.3,30.13,South,180,0.7,0.7,47,0.00,,---,0.00,VWS V14.01,2013-08-31 08:11:00,
2013-08-31 02:16:00,73.6,52.2,30.13,SSE,158,0.4,0.4,47,0.00,,---,0.00,VWS V14.01,2013-08-31 08:16:00,
2013-08-31 02:21:00,73.3,51.9,30.13,SSE,158,0.2,0.2,47,0.00,,---,0.00,VWS V14.01,2013-08-31 08:21:00,
2013-08-31 02:26:00,73.1,52.8,30.14,SE,135,0.4,0.4,49,0.00,,---,0.00,VWS V14.01,2013-08-31 08:26:00,
2013-08-31 02:31:00,72.9,52.6,30.14,SSE,158,0.4,0.4,49,0.00,,---,0.00,VWS V14.01,2013-08-31 08:31:00,
2013-08-31 02:36:00,72.7,52.5,30.14,SE,135,0.0,0.0,49,0.00,,---,0.00,VWS V14.01,2013-08-31 08:36:00,
2013-08-31 02:41:00,72.5,53.4,30.13,SE,135,0.4,0.4,51,0.00,,---,0.00,VWS V14.01,2013-08-31 08:41:00,
2013-08-31 02:46:00,72.4,52.7,30.13,SE,135,0.0,0.0,50,0.00,,---,0.00,VWS V14.01,2013-08-31 08:46:00,
2013-08-31 02:51:00,72.2,53.1,30.14,SE,135,0.0,0.0,51,0.00,,---,0.00,VWS V14.01,2013-08-31 08:51:00,
2013-08-31 02:56:00,72.0,53.4,30.13,SE,135,0.0,0.4,52,0.00,,---,0.00,VWS V14.01,2013-08-31 08:56:00,
2013-08-31 03:01:00,72.0,52.9,30.14,SE,135,0.0,0.0,51,0.00,,---,0.00,VWS V14.01,2013-08-31 09:01:00,
2013-08-31 03:06:00,71.6,53.1,30.13,SE,135,0.0,0.0,52,0.00,,---,0.00,VWS V14.01,2013-08-31 09:06:00,
2013-08-31 03:11:00,71.3,52.8,30.13,SE,135,0.0,0.0,52,0.00,,---,0.00,VWS V14.01,2013-08-31 09:11:00,
2013-08-31 03:16:00,70.9,52.9,30.13,SE,135,0.0,0.0,53,0.00,,---,0.00,VWS V14.01,2013-08-31 09:16:00,
2013-08-31 03:21:00,70.7,52.8,30.13,SE,135,0.0,0.0,53,0.00,,---,0.00,VWS V14.01,2013-08-31 09:21:00,
2013-08-31 03:26:00,70.6,53.2,30.13,SE,135,0.7,0.7,54,0.00,,---,0.00,VWS V14.01,2013-08-31 09:26:00,
2013-08-31 03:31:00,70.6,54.2,30.13,SE,135,0.7,0.7,56,0.00,,---,0.00,VWS V14.01,2013-08-31 09:31:00,
2013-08-31 03:36:00,70.6,54.6,30.13,ESE,112,1.8,1.8,57,0.00,,---,0.00,VWS V14.01,2013-08-31 09:36:00,
2013-08-31 03:41:00,70.7,54.7,30.13,ESE,112,0.4,0.4,57,0.00,,---,0.00,VWS V14.01,2013-08-31 09:41:00,
2013-08-31 03:46:00,70.7,54.2,30.12,ESE,112,0.7,0.7,56,0.00,,---,0.00,VWS V14.01,2013-08-31 09:46:00,
2013-08-31 03:51:00,70.6,55.1,30.13,ESE,112,1.8,1.8,58,0.00,,---,0.00,VWS V14.01,2013-08-31 09:51:00,
2013-08-31 03:56:00,70.6,54.6,30.13,ESE,112,0.0,0.0,57,0.00,,---,0.00,VWS V14.01,2013-08-31 09:56:00,
2013-08-31 04:01:00,70.4,54.0,30.13,East,90,1.8,1.8,56,0.00,,---,0.00,VWS V14.01,2013-08-31 10:01:00,
2013-08-31 04:06:00,70.4,54.5,30.12,East,90,0.9,0.9,57,0.00,,---,0.00,VWS V14.01,2013-08-31 10:06:00,
2013-08-31 04:11:00,70.2,53.8,30.13,SE,135,0.0,0.0,56,0.00,,---,0.00,VWS V14.01,2013-08-31 10:11:00,
2013-08-31 04:16:00,70.0,54.1,30.13,ENE,68,1.1,1.1,57,0.00,,---,0.00,VWS V14.01,2013-08-31 10:16:00,
2013-08-31 04:21:00,69.8,54.8,30.13,East,90,1.3,1.3,59,0.00,,---,0.00,VWS V14.01,2013-08-31 10:21:00,
2013-08-31 04:26:00,70.0,54.1,30.13,ESE,112,0.0,0.0,57,0.00,,---,0.00,VWS V14.01,2013-08-31 10:26:00,
2013-08-31 04:31:00,69.7,53.8,30.12,ESE,112,0.0,0.0,57,0.00,,---,0.00,VWS V14.01,2013-08-31 10:31:00,
2013-08-31 04:36:00,69.3,53.9,30.13,ESE,112,0.0,0.0,58,0.00,,---,0.00,VWS V14.01,2013-08-31 10:36:00,
2013-08-31 04:41:00,69.1,53.7,30.13,ESE,112,0.0,0.0,58,0.00,,---,0.00,VWS V14.01,2013-08-31 10:41:00,
2013-08-31 04:46:00,68.9,53.5,30.13,ESE,112,0.0,0.0,58,0.00,,---,0.00,VWS V14.01,2013-08-31 10:46:00,
2013-08-31 04:51:00,68.8,53.4,30.12,ESE,112,0.0,0.0,58,0.00,,---,0.00,VWS V14.01,2013-08-31 10:51:00,
2013-08-31 04:56:00,68.8,53.9,30.13,ESE,112,0.0,0.0,59,0.00,,---,0.00,VWS V14.01,2013-08-31 10:56:00,
2013-08-31 05:01:00,68.6,53.7,30.12,NNE,22,0.0,0.0,59,0.00,,---,0.00,VWS V14.01,2013-08-31 11:01:00,
2013-08-31 05:06:00,68.8,54.4,30.12,NE,45,0.2,0.2,60,0.00,,---,0.00,VWS V14.01,2013-08-31 11:06:00,
2013-08-31 05:11:00,68.8,54.4,30.12,NE,45,0.4,0.4,60,0.00,,---,0.00,VWS V14.01,2013-08-31 11:11:00,
2013-08-31 05:16:00,68.4,53.5,30.12,NE,45,0.0,0.0,59,0.00,,---,0.00,VWS V14.01,2013-08-31 11:16:00,
2013-08-31 05:21:00,68.0,53.6,30.12,NE,45,0.0,0.0,60,0.00,,---,0.00,VWS V14.01,2013-08-31 11:21:00,
2013-08-31 05:26:00,67.9,53.5,30.13,NE,45,0.0,0.0,60,0.00,,---,0.00,VWS V14.01,2013-08-31 11:26:00,
2013-08-31 05:31:00,67.5,53.6,30.12,NE,45,0.0,0.0,61,0.00,,---,0.00,VWS V14.01,2013-08-31 11:31:00,
2013-08-31 05:36:00,67.3,54.3,30.12,NE,45,0.0,0.0,63,0.00,,---,0.00,VWS V14.01,2013-08-31 11:36:00,
2013-08-31 05:41:00,67.3,54.3,30.12,NE,45,0.0,0.0,63,0.00,,---,0.00,VWS V14.01,2013-08-31 11:41:00,
2013-08-31 05:46:00,67.5,54.5,30.13,NE,45,0.0,0.0,63,0.00,,---,0.00,VWS V14.01,2013-08-31 11:46:00,
2013-08-31 05:51:00,67.5,54.0,30.13,NE,45,0.0,0.0,62,0.00,,---,0.00,VWS V14.01,2013-08-31 11:51:00,
2013-08-31 05:56:00,67.3,53.8,30.13,NE,45,0.0,0.0,62,0.00,,---,0.00,VWS V14.01,2013-08-31 11:56:00,
2013-08-31 06:01:00,67.0,53.6,30.13,NE,45,0.0,0.0,62,0.00,,---,0.00,VWS V14.01,2013-08-31 12:01:00,
2013-08-31 06:06:00,66.8,54.7,30.13,ENE,68,0.0,0.0,65,0.00,,---,0.00,VWS V14.01,2013-08-31 12:06:00,
2013-08-31 06:11:00,66.8,54.2,30.13,ENE,68,0.0,0.0,64,0.00,,---,0.00,VWS V14.01,2013-08-31 12:11:00,
2013-08-31 06:16:00,66.8,54.7,30.13,ENE,68,0.4,0.4,65,0.00,,---,0.00,VWS V14.01,2013-08-31 12:16:00,
2013-08-31 06:21:00,66.8,55.1,30.13,ENE,68,0.9,0.9,66,0.00,,---,0.00,VWS V14.01,2013-08-31 12:21:00,
2013-08-31 06:26:00,67.0,54.9,30.14,ENE,68,0.7,0.7,65,0.00,,---,0.00,VWS V14.01,2013-08-31 12:26:00,
2013-08-31 06:31:00,67.0,55.3,30.14,East,90,0.7,0.7,66,0.00,,---,0.00,VWS V14.01,2013-08-31 12:31:00,
2013-08-31 06:36:00,66.8,55.1,30.14,East,90,0.0,0.0,66,0.00,,---,0.00,VWS V14.01,2013-08-31 12:36:00,
2013-08-31 06:41:00,67.0,55.3,30.14,East,90,0.4,0.4,66,0.00,,---,0.00,VWS V14.01,2013-08-31 12:41:00,
2013-08-31 06:46:00,66.8,54.7,30.14,East,90,0.0,0.0,65,0.00,,---,0.00,VWS V14.01,2013-08-31 12:46:00,
2013-08-31 06:51:00,66.6,54.5,30.14,East,90,0.0,0.0,65,0.00,,---,0.00,VWS V14.01,2013-08-31 12:51:00,
2013-08-31 06:56:00,66.6,55.3,30.14,East,90,0.0,0.0,67,0.00,,---,0.00,VWS V14.01,2013-08-31 12:56:00,
2013-08-31 07:01:00,66.8,55.9,30.14,East,90,0.4,0.4,68,0.00,,---,0.00,VWS V14.01,2013-08-31 13:01:00,
2013-08-31 07:06:00,66.8,55.1,30.14,East,90,0.0,0.0,66,0.00,,---,0.00,VWS V14.01,2013-08-31 13:06:00,
2013-08-31 07:11:00,66.8,55.1,30.14,East,90,0.0,0.0,66,0.00,,---,0.00,VWS V14.01,2013-08-31 13:11:00,
2013-08-31 07:16:00,66.8,55.1,30.15,East,90,0.0,0.0,66,0.00,,---,0.00,VWS V14.01,2013-08-31 13:16:00,
2013-08-31 07:21:00,67.7,56.0,30.15,East,90,0.0,0.0,66,0.00,,---,0.00,VWS V14.01,2013-08-31 13:21:00,
2013-08-31 07:26:00,70.0,57.7,30.15,East,90,0.0,0.0,65,0.00,,---,0.00,VWS V14.01,2013-08-31 13:26:00,
2013-08-31 07:31:00,72.0,57.8,30.15,East,90,0.0,0.0,61,0.00,,---,0.00,VWS V14.01,2013-08-31 13:31:00,
2013-08-31 07:36:00,73.4,58.7,30.15,East,90,0.0,0.0,60,0.00,,---,0.00,VWS V14.01,2013-08-31 13:36:00,
2013-08-31 07:41:00,75.2,59.4,30.15,East,90,0.0,0.0,58,0.00,,---,0.00,VWS V14.01,2013-08-31 13:41:00,
2013-08-31 07:46:00,77.0,59.6,30.15,East,90,0.0,0.0,55,0.00,,---,0.00,VWS V14.01,2013-08-31 13:46:00,
2013-08-31 07:51:00,77.8,58.2,30.15,SE,135,0.0,0.0,51,0.00,,---,0.00,VWS V14.01,2013-08-31 13:51:00,
2013-08-31 07:56:00,77.4,57.9,30.15,South,180,0.4,0.4,51,0.00,,---,0.00,VWS V14.01,2013-08-31 13:56:00,
2013-08-31 08:01:00,76.9,57.4,30.15,SW,225,1.1,1.1,51,0.00,,---,0.00,VWS V14.01,2013-08-31 14:01:00,
2013-08-31 08:06:00,76.3,57.4,30.15,WSW,248,0.4,0.4,52,0.00,,---,0.00,VWS V14.01,2013-08-31 14:06:00,
2013-08-31 08:11:00,76.9,58.0,30.15,SW,225,0.4,0.4,52,0.00,,---,0.00,VWS V14.01,2013-08-31 14:11:00,
2013-08-31 08:16:00,77.4,58.4,30.16,SW,225,0.0,0.0,52,0.00,,---,0.00,VWS V14.01,2013-08-31 14:16:00,
2013-08-31 08:21:00,78.1,58.0,30.15,SW,225,0.0,0.0,50,0.00,,---,0.00,VWS V14.01,2013-08-31 14:21:00,
2013-08-31 08:26:00,78.3,57.6,30.15,SSW,202,0.4,0.4,49,0.00,,---,0.00,VWS V14.01,2013-08-31 14:26:00,
2013-08-31 08:31:00,79.0,57.7,30.15,SW,225,0.4,0.4,48,0.00,,---,0.00,VWS V14.01,2013-08-31 14:31:00,
2013-08-31 08:36:00,80.5,59.0,30.16,SSE,158,0.9,0.9,48,0.00,,---,0.00,VWS V14.01,2013-08-31 14:36:00,
2013-08-31 08:41:00,79.7,57.7,30.16,WSW,248,0.7,0.7,47,0.00,,---,0.00,VWS V14.01,2013-08-31 14:41:00,
2013-08-31 08:46:00,79.6,58.2,30.16,SSW,202,0.4,0.4,48,0.00,,---,0.00,VWS V14.01,2013-08-31 14:46:00,
2013-08-31 08:51:00,80.6,58.5,30.16,SE,135,0.7,0.7,47,0.00,,---,0.00,VWS V14.01,2013-08-31 14:51:00,
2013-08-31 08:56:00,81.5,58.1,30.15,South,180,1.1,1.1,45,0.00,,---,0.00,VWS V14.01,2013-08-31 14:56:00,
2013-08-31 09:01:00,81.4,58.7,30.15,SSE,158,0.4,0.4,46,0.00,,---,0.00,VWS V14.01,2013-08-31 15:01:00,
2013-08-31 09:06:00,82.1,58.7,30.15,SSW,202,0.9,0.9,45,0.00,,---,0.00,VWS V14.01,2013-08-31 15:06:00,
2013-08-31 09:11:00,80.6,57.9,30.15,WSW,248,0.4,0.4,46,0.00,,---,0.00,VWS V14.01,2013-08-31 15:11:00,
2013-08-31 09:17:00,80.6,58.5,30.15,SSW,202,0.7,0.7,47,0.00,,---,0.00,VWS V14.01,2013-08-31 15:17:00,
2013-08-31 09:22:00,82.8,59.3,30.15,SE,135,0.0,0.0,45,0.00,,---,0.00,VWS V14.01,2013-08-31 15:22:00,
2013-08-31 09:27:00,85.1,59.5,30.15,ESE,112,0.4,0.4,42,0.00,,---,0.00,VWS V14.01,2013-08-31 15:27:00,
2013-08-31 09:32:00,85.0,58.7,30.15,South,180,1.1,1.3,41,0.00,,---,0.00,VWS V14.01,2013-08-31 15:32:00,
2013-08-31 09:37:00,83.9,58.4,30.15,SSW,202,1.1,1.1,42,0.00,,---,0.00,VWS V14.01,2013-08-31 15:37:00,
2013-08-31 09:42:00,83.5,58.7,30.15,SSE,158,0.2,0.2,43,0.00,,---,0.00,VWS V14.01,2013-08-31 15:42:00,
2013-08-31 09:47:00,84.4,58.2,30.15,SSW,202,0.9,0.9,41,0.00,,---,0.00,VWS V14.01,2013-08-31 15:47:00,
2013-08-31 09:52:00,84.6,58.3,30.15,SW,225,1.1,1.1,41,0.00,,---,0.00,VWS V14.01,2013-08-31 15:52:00,
2013-08-31 09:57:00,84.8,59.2,30.15,South,180,0.0,0.0,42,0.00,,---,0.00,VWS V14.01,2013-08-31 15:57:00,
2013-08-31 10:02:00,85.3,58.3,30.15,WSW,248,0.9,0.9,40,0.00,,---,0.00,VWS V14.01,2013-08-31 16:02:00,
2013-08-31 10:07:00,84.8,57.8,30.15,SSW,202,1.1,1.1,40,0.00,,---,0.00,VWS V14.01,2013-08-31 16:07:00,
2013-08-31 10:12:00,84.6,57.6,30.15,SW,225,0.9,0.9,40,0.00,,---,0.00,VWS V14.01,2013-08-31 16:12:00,
2013-08-31 10:17:00,82.4,57.0,30.15,WSW,248,1.8,1.8,42,0.00,,---,0.00,VWS V14.01,2013-08-31 16:17:00,
2013-08-31 10:22:00,82.6,57.2,30.15,NW,315,2.2,2.2,42,0.00,,---,0.00,VWS V14.01,2013-08-31 16:22:00,
2013-08-31 10:27:00,83.3,57.8,30.15,SSW,202,1.3,1.3,42,0.00,,---,0.00,VWS V14.01,2013-08-31 16:27:00,
2013-08-31 10:32:00,82.8,57.4,30.15,SW,225,0.9,0.9,42,0.00,,---,0.00,VWS V14.01,2013-08-31 16:32:00,
2013-08-31 10:37:00,83.7,57.5,30.15,West,270,3.4,3.4,41,0.00,,---,0.00,VWS V14.01,2013-08-31 16:37:00,
2013-08-31 10:42:00,83.0,56.9,30.15,SW,225,1.8,1.8,41,0.00,,---,0.00,VWS V14.01,2013-08-31 16:42:00,
2013-08-31 10:47:00,84.1,57.2,30.15,WSW,248,2.7,2.7,40,0.00,,---,0.00,VWS V14.01,2013-08-31 16:47:00,
2013-08-31 10:52:00,84.2,57.3,30.15,SSE,158,0.7,0.7,40,0.00,,---,0.00,VWS V14.01,2013-08-31 16:52:00,
2013-08-31 10:57:00,85.0,57.3,30.15,SSW,202,1.6,1.6,39,0.00,,---,0.00,VWS V14.01,2013-08-31 16:57:00,
2013-08-31 11:02:00,85.7,57.9,30.15,SE,135,1.1,1.1,39,0.00,,---,0.00,VWS V14.01,2013-08-31 17:02:00,
2013-08-31 11:07:00,86.8,58.2,30.15,WNW,292,0.2,0.2,38,0.00,,---,0.00,VWS V14.01,2013-08-31 17:07:00,
2013-08-31 11:12:00,86.4,57.1,30.14,WSW,248,2.5,2.5,37,0.00,,---,0.00,VWS V14.01,2013-08-31 17:12:00,
2013-08-31 11:17:00,84.8,56.4,30.14,NW,315,2.5,2.5,38,0.00,,---,0.00,VWS V14.01,2013-08-31 17:17:00,
2013-08-31 11:22:00,85.7,57.2,30.15,SW,225,0.4,0.4,38,0.00,,---,0.00,VWS V14.01,2013-08-31 17:22:00,
2013-08-31 11:27:00,86.4,57.8,30.14,WSW,248,0.0,0.0,38,0.00,,---,0.00,VWS V14.01,2013-08-31 17:27:00,
2013-08-31 11:32:00,87.8,59.8,30.14,SE,135,0.2,0.2,39,0.00,,---,0.00,VWS V14.01,2013-08-31 17:32:00,
2013-08-31 11:37:00,86.8,56.7,30.14,SW,225,3.6,5.1,36,0.00,,---,0.00,VWS V14.01,2013-08-31 17:37:00,
2013-08-31 11:42:00,85.7,57.2,30.14,WSW,248,2.5,2.5,38,0.00,,---,0.00,VWS V14.01,2013-08-31 17:42:00,
2013-08-31 11:47:00,85.3,56.8,30.14,SW,225,1.8,1.8,38,0.00,,---,0.00,VWS V14.01,2013-08-31 17:47:00,
2013-08-31 11:52:00,85.3,56.8,30.13,NNW,338,2.5,2.5,38,0.00,,---,0.00,VWS V14.01,2013-08-31 17:52:00,
2013-08-31 11:57:00,86.6,57.2,30.13,WSW,248,1.1,1.1,37,0.00,,---,0.00,VWS V14.01,2013-08-31 17:57:00,
2013-08-31 12:02:00,86.6,55.7,30.13,WNW,292,1.8,1.8,35,0.00,,---,0.00,VWS V14.01,2013-08-31 18:02:00,
2013-08-31 12:07:00,86.2,56.9,30.13,WNW,292,1.8,1.8,37,0.00,,---,0.00,VWS V14.01,2013-08-31 18:07:00,
2013-08-31 12:12:00,87.1,55.4,30.12,ESE,112,1.6,1.6,34,0.00,,---,0.00,VWS V14.01,2013-08-31 18:12:00,
2013-08-31 12:17:00,87.8,56.8,30.12,WSW,248,1.8,1.8,35,0.00,,---,0.00,VWS V14.01,2013-08-31 18:17:00,
2013-08-31 12:22:00,86.8,55.9,30.12,WSW,248,1.6,1.6,35,0.00,,---,0.00,VWS V14.01,2013-08-31 18:22:00,
2013-08-31 12:27:00,87.1,56.9,30.12,North,0,3.1,3.1,36,0.00,,---,0.00,VWS V14.01,2013-08-31 18:27:00,
2013-08-31 12:32:00,87.5,57.3,30.12,SSE,158,1.8,1.8,36,0.00,,---,0.00,VWS V14.01,2013-08-31 18:32:00,
2013-08-31 12:37:00,87.5,57.3,30.12,NE,45,2.0,2.0,36,0.00,,---,0.00,VWS V14.01,2013-08-31 18:37:00,
2013-08-31 12:42:00,88.0,56.9,30.11,NNE,22,0.4,0.4,35,0.00,,---,0.00,VWS V14.01,2013-08-31 18:42:00,
2013-08-31 12:47:00,88.4,57.3,30.11,SW,225,3.1,3.1,35,0.00,,---,0.00,VWS V14.01,2013-08-31 18:47:00,
2013-08-31 12:52:00,86.8,55.9,30.11,WSW,248,4.3,4.3,35,0.00,,---,0.00,VWS V14.01,2013-08-31 18:52:00,
2013-08-31 12:57:00,86.8,55.1,30.11,NW,315,5.4,5.4,34,0.00,,---,0.00,VWS V14.01,2013-08-31 18:57:00,
2013-08-31 13:02:00,87.3,55.5,30.10,SE,135,0.2,0.2,34,0.00,,---,0.00,VWS V14.01,2013-08-31 19:02:00,
2013-08-31 13:07:00,87.8,55.2,30.10,NNW,338,3.8,3.8,33,0.00,,---,0.00,VWS V14.01,2013-08-31 19:07:00,
2013-08-31 13:12:00,88.4,56.5,30.10,NNW,338,0.9,0.9,34,0.00,,---,0.00,VWS V14.01,2013-08-31 19:12:00,
2013-08-31 13:17:00,89.3,55.6,30.10,SSW,202,1.3,1.3,32,0.00,,---,0.00,VWS V14.01,2013-08-31 19:17:00,
2013-08-31 13:22:00,89.5,55.8,30.10,SSE,158,2.0,2.0,32,0.00,,---,0.00,VWS V14.01,2013-08-31 19:22:00,
2013-08-31 13:27:00,89.6,55.9,30.10,WSW,248,3.1,3.1,32,0.00,,---,0.00,VWS V14.01,2013-08-31 19:27:00,
2013-08-31 13:32:00,89.3,55.6,30.10,WSW,248,1.8,1.8,32,0.00,,---,0.00,VWS V14.01,2013-08-31 19:32:00,
2013-08-31 13:37:00,89.5,55.8,30.10,WSW,248,0.9,0.9,32,0.00,,---,0.00,VWS V14.01,2013-08-31 19:37:00,
2013-08-31 13:42:00,89.8,53.3,30.10,WSW,248,3.6,3.6,29,0.00,,---,0.00,VWS V14.01,2013-08-31 19:42:00,
2013-08-31 13:47:00,90.4,51.9,30.09,West,270,1.8,1.8,27,0.00,,---,0.00,VWS V14.01,2013-08-31 19:47:00,
2013-08-31 13:52:00,90.2,49.7,30.09,SSW,202,3.8,3.8,25,0.00,,---,0.00,VWS V14.01,2013-08-31 19:52:00,
2013-08-31 13:57:00,90.5,49.9,30.09,NW,315,2.0,2.0,25,0.00,,---,0.00,VWS V14.01,2013-08-31 19:57:00,
2013-08-31 14:02:00,91.8,49.9,30.08,North,0,1.1,1.1,24,0.00,,---,0.00,VWS V14.01,2013-08-31 20:02:00,
2013-08-31 14:07:00,91.8,51.0,30.08,SW,225,2.0,2.0,25,0.00,,---,0.00,VWS V14.01,2013-08-31 20:07:00,
2013-08-31 14:12:00,90.9,50.2,30.08,NW,315,1.1,1.1,25,0.00,,---,0.00,VWS V14.01,2013-08-31 20:12:00,
2013-08-31 14:17:00,90.9,50.2,30.08,SW,225,1.8,1.8,25,0.00,,---,0.00,VWS V14.01,2013-08-31 20:17:00,
2013-08-31 14:22:00,91.4,50.7,30.08,WNW,292,4.9,4.9,25,0.00,,---,0.00,VWS V14.01,2013-08-31 20:22:00,
2013-08-31 14:27:00,90.5,49.9,30.07,West,270,5.4,5.4,25,0.00,,---,0.00,VWS V14.01,2013-08-31 20:27:00,
2013-08-31 14:32:00,90.7,50.1,30.07,WNW,292,2.5,2.5,25,0.00,,---,0.00,VWS V14.01,2013-08-31 20:32:00,
2013-08-31 14:37:00,90.9,52.3,30.07,West,270,3.1,3.1,27,0.00,,---,0.00,VWS V14.01,2013-08-31 20:37:00,
2013-08-31 14:42:00,91.1,52.5,30.07,West,270,3.6,3.6,27,0.00,,---,0.00,VWS V14.01,2013-08-31 20:42:00,
2013-08-31 14:47:00,91.4,52.8,30.07,South,180,1.8,1.8,27,0.00,,---,0.00,VWS V14.01,2013-08-31 20:47:00,
2013-08-31 14:52:00,91.1,50.4,30.06,SW,225,4.7,4.7,25,0.00,,---,0.00,VWS V14.01,2013-08-31 20:52:00,
2013-08-31 14:57:00,91.4,50.7,30.06,WSW,248,3.4,3.4,25,0.00,,---,0.00,VWS V14.01,2013-08-31 20:57:00,
2013-08-31 15:02:00,92.2,52.4,30.06,WSW,248,3.4,3.4,26,0.00,,---,0.00,VWS V14.01,2013-08-31 21:02:00,
2013-08-31 15:07:00,91.4,50.7,30.06,NNW,338,2.5,2.5,25,0.00,,---,0.00,VWS V14.01,2013-08-31 21:07:00,
2013-08-31 15:12:00,91.8,51.0,30.05,WSW,248,5.4,5.4,25,0.00,,---,0.00,VWS V14.01,2013-08-31 21:12:00,
2013-08-31 15:17:00,91.3,50.6,30.05,WSW,248,3.1,3.1,25,0.00,,---,0.00,VWS V14.01,2013-08-31 21:17:00,
2013-08-31 15:22:00,92.2,52.4,30.05,SSE,158,0.9,0.9,26,0.00,,---,0.00,VWS V14.01,2013-08-31 21:22:00,
2013-08-31 15:27:00,92.3,52.5,30.05,WSW,248,4.3,4.3,26,0.00,,---,0.00,VWS V14.01,2013-08-31 21:27:00,
2013-08-31 15:32:00,93.2,53.2,30.05,WNW,292,3.6,3.6,26,0.00,,---,0.00,VWS V14.01,2013-08-31 21:32:00,
2013-08-31 15:37:00,94.1,52.9,30.04,West,270,1.6,1.6,25,0.00,,---,0.00,VWS V14.01,2013-08-31 21:37:00,
2013-08-31 15:42:00,94.9,52.5,30.04,WSW,248,5.4,5.4,24,0.00,,---,0.00,VWS V14.01,2013-08-31 21:42:00,
2013-08-31 15:47:00,94.5,52.2,30.04,WSW,248,3.4,3.4,24,0.00,,---,0.00,VWS V14.01,2013-08-31 21:47:00,
2013-08-31 15:52:00,94.7,52.3,30.04,WSW,248,2.7,2.7,24,0.00,,---,0.00,VWS V14.01,2013-08-31 21:52:00,
2013-08-31 15:57:00,94.1,51.8,30.04,SW,225,3.4,3.4,24,0.00,,---,0.00,VWS V14.01,2013-08-31 21:57:00,
2013-08-31 16:02:00,94.9,52.5,30.04,WNW,292,3.4,3.4,24,0.00,,---,0.00,VWS V14.01,2013-08-31 22:02:00,
2013-08-31 16:07:00,94.7,52.3,30.04,SSE,158,2.2,2.2,24,0.00,,---,0.00,VWS V14.01,2013-08-31 22:07:00,
2013-08-31 16:12:00,94.5,52.2,30.04,SW,225,4.0,4.0,24,0.00,,---,0.00,VWS V14.01,2013-08-31 22:12:00,
2013-08-31 16:17:00,93.4,51.2,30.04,SW,225,4.9,4.9,24,0.00,,---,0.00,VWS V14.01,2013-08-31 22:17:00,
2013-08-31 16:22:00,92.5,50.5,30.04,SW,225,1.3,1.3,24,0.00,,---,0.00,VWS V14.01,2013-08-31 22:22:00,
2013-08-31 16:27:00,93.2,51.1,30.04,WSW,248,4.9,4.9,24,0.00,,---,0.00,VWS V14.01,2013-08-31 22:27:00,
2013-08-31 16:32:00,93.8,51.6,30.04,South,180,3.4,3.4,24,0.00,,---,0.00,VWS V14.01,2013-08-31 22:32:00,
2013-08-31 16:37:00,94.5,51.0,30.03,WSW,248,6.9,6.9,23,0.00,,---,0.00,VWS V14.01,2013-08-31 22:37:00,
2013-08-31 16:42:00,94.7,51.2,30.03,SW,225,1.8,1.8,23,0.00,,---,0.00,VWS V14.01,2013-08-31 22:42:00,
2013-08-31 16:47:00,95.8,50.9,30.03,SSW,202,2.0,2.0,22,0.00,,---,0.00,VWS V14.01,2013-08-31 22:47:00,
2013-08-31 16:52:00,95.8,50.9,30.03,SW,225,4.5,4.5,22,0.00,,---,0.00,VWS V14.01,2013-08-31 22:52:00,
2013-08-31 16:57:00,95.0,51.4,30.02,WSW,248,2.0,2.0,23,0.00,,---,0.00,VWS V14.01,2013-08-31 22:57:00,
2013-08-31 17:02:00,94.9,51.3,30.02,West,270,2.5,2.5,23,0.00,,---,0.00,VWS V14.01,2013-08-31 23:02:00,
2013-08-31 17:07:00,94.9,48.9,30.02,WSW,248,2.0,2.0,21,0.00,,---,0.00,VWS V14.01,2013-08-31 23:07:00,
2013-08-31 17:12:00,95.6,51.9,30.02,WSW,248,1.8,1.8,23,0.00,,---,0.00,VWS V14.01,2013-08-31 23:12:00,
2013-08-31 17:17:00,96.3,52.5,30.02,South,180,0.4,0.4,23,0.00,,---,0.00,VWS V14.01,2013-08-31 23:17:00,
2013-08-31 17:22:00,96.5,51.5,30.02,WSW,248,3.8,3.8,22,0.00,,---,0.00,VWS V14.01,2013-08-31 23:22:00,
2013-08-31 17:27:00,96.1,52.3,30.02,South,180,1.1,1.1,23,0.00,,---,0.00,VWS V14.01,2013-08-31 23:27:00,
2013-08-31 17:32:00,95.8,52.1,30.02,WSW,248,2.9,2.9,23,0.00,,---,0.00,VWS V14.01,2013-08-31 23:32:00,
2013-08-31 17:37:00,95.8,52.1,30.02,SW,225,4.9,4.9,23,0.00,,---,0.00,VWS V14.01,2013-08-31 23:37:00,
2013-08-31 17:42:00,95.0,51.4,30.02,WSW,248,3.4,3.4,23,0.00,,---,0.00,VWS V14.01,2013-08-31 23:42:00,
2013-08-31 17:47:00,95.9,52.2,30.02,NNW,338,2.7,2.7,23,0.00,,---,0.00,VWS V14.01,2013-08-31 23:47:00,
2013-08-31 17:52:00,97.2,53.3,30.02,NW,315,0.0,0.0,23,0.00,,---,0.00,VWS V14.01,2013-08-31 23:52:00,
2013-08-31 17:57:00,96.7,50.4,30.02,WSW,248,2.9,2.9,21,0.00,,---,0.00,VWS V14.01,2013-08-31 23:57:00,
2013-08-31 18:02:00,95.0,50.2,30.01,SSW,202,1.1,1.1,22,0.00,,---,0.00,VWS V14.01,2013-09-01 00:02:00,
2013-08-31 18:07:00,94.7,48.7,30.01,South,180,1.6,1.6,21,0.00,,---,0.00,VWS V14.01,2013-09-01 00:07:00,
2013-08-31 18:12:00,94.5,45.9,30.02,SW,225,1.1,1.1,19,0.00,,---,0.00,VWS V14.01,2013-09-01 00:12:00,
2013-08-31 18:17:00,94.7,46.1,30.01,SSW,202,1.8,1.8,19,0.00,,---,0.00,VWS V14.01,2013-09-01 00:17:00,
2013-08-31 18:22:00,95.6,48.2,30.01,WSW,248,6.9,6.9,20,0.00,,---,0.00,VWS V14.01,2013-09-01 00:22:00,
2013-08-31 18:27:00,94.1,48.2,30.02,SW,225,1.8,1.8,21,0.00,,---,0.00,VWS V14.01,2013-09-01 00:27:00,
2013-08-31 18:32:00,94.7,48.7,30.02,SE,135,2.0,2.0,21,0.00,,---,0.00,VWS V14.01,2013-09-01 00:32:00,
2013-08-31 18:37:00,94.9,48.9,30.02,SSW,202,0.7,0.7,21,0.00,,---,0.00,VWS V14.01,2013-09-01 00:37:00,
2013-08-31 18:42:00,94.5,48.6,30.02,SW,225,2.7,2.7,21,0.00,,---,0.00,VWS V14.01,2013-09-01 00:42:00,
2013-08-31 18:47:00,94.1,48.2,30.02,SSW,202,2.5,2.5,21,0.00,,---,0.00,VWS V14.01,2013-09-01 00:47:00,
2013-08-31 18:52:00,93.6,47.8,30.02,SSW,202,1.3,1.3,21,0.00,,---,0.00,VWS V14.01,2013-09-01 00:52:00,
2013-08-31 18:57:00,93.6,47.8,30.02,WSW,248,1.8,1.8,21,0.00,,---,0.00,VWS V14.01,2013-09-01 00:57:00,
2013-08-31 19:01:00,93.2,47.5,30.02,WSW,248,2.0,2.0,21,0.00,,---,0.00,VWS V14.01,2013-09-01 01:01:00,
2013-08-31 19:06:00,93.1,47.4,30.02,SSW,202,1.1,1.1,21,0.00,,---,0.00,VWS V14.01,2013-09-01 01:06:00,
2013-08-31 19:11:00,92.2,49.1,30.02,South,180,0.9,0.9,23,0.00,,---,0.00,VWS V14.01,2013-09-01 01:11:00,
2013-08-31 19:16:00,90.9,48.0,30.02,SW,225,0.9,0.9,23,0.00,,---,0.00,VWS V14.01,2013-09-01 01:16:00,
2013-08-31 19:21:00,90.0,47.3,30.02,SW,225,0.9,0.9,23,0.00,,---,0.00,VWS V14.01,2013-09-01 01:21:00,
2013-08-31 19:26:00,89.5,46.8,30.02,SW,225,1.1,1.1,23,0.00,,---,0.00,VWS V14.01,2013-09-01 01:26:00,
2013-08-31 19:31:00,89.1,46.5,30.03,SSW,202,0.4,0.4,23,0.00,,---,0.00,VWS V14.01,2013-09-01 01:31:00,
2013-08-31 19:36:00,88.6,47.2,30.03,SSW,202,0.0,0.0,24,0.00,,---,0.00,VWS V14.01,2013-09-01 01:36:00,
2013-08-31 19:41:00,87.8,46.5,30.03,SSW,202,0.7,0.7,24,0.00,,---,0.00,VWS V14.01,2013-09-01 01:41:00,
2013-08-31 19:46:00,87.5,46.3,30.03,SSW,202,0.4,0.4,24,0.00,,---,0.00,VWS V14.01,2013-09-01 01:46:00,
2013-08-31 19:51:00,87.1,46.0,30.02,SSW,202,0.0,0.0,24,0.00,,---,0.00,VWS V14.01,2013-09-01 01:51:00,
2013-08-31 19:56:00,86.6,45.5,30.03,South,180,0.7,0.7,24,0.00,,---,0.00,VWS V14.01,2013-09-01 01:56:00,
2013-08-31 20:01:00,86.2,45.2,30.03,South,180,0.0,0.0,24,0.00,,---,0.00,VWS V14.01,2013-09-01 02:01:00,
2013-08-31 20:06:00,86.0,45.0,30.03,SSE,158,0.4,0.4,24,0.00,,---,0.00,VWS V14.01,2013-09-01 02:06:00,
2013-08-31 20:11:00,85.7,44.8,30.03,SSE,158,0.4,0.4,24,0.00,,---,0.00,VWS V14.01,2013-09-01 02:11:00,
2013-08-31 20:16:00,85.3,45.5,30.04,SSE,158,0.7,0.7,25,0.00,,---,0.00,VWS V14.01,2013-09-01 02:16:00,
2013-08-31 20:21:00,85.0,45.3,30.03,SSE,158,0.4,0.4,25,0.00,,---,0.00,VWS V14.01,2013-09-01 02:21:00,
2013-08-31 20:26:00,84.6,44.9,30.03,SSE,158,1.1,1.1,25,0.00,,---,0.00,VWS V14.01,2013-09-01 02:26:00,
2013-08-31 20:31:00,84.2,45.6,30.04,SE,135,0.4,0.4,26,0.00,,---,0.00,VWS V14.01,2013-09-01 02:31:00,
2013-08-31 20:36:00,84.2,46.6,30.04,ESE,112,0.4,0.4,27,0.00,,---,0.00,VWS V14.01,2013-09-01 02:36:00,
2013-08-31 20:41:00,83.7,46.2,30.04,ESE,112,0.0,0.0,27,0.00,,---,0.00,VWS V14.01,2013-09-01 02:41:00,
2013-08-31 20:46:00,83.3,46.8,30.04,ESE,112,0.4,0.4,28,0.00,,---,0.00,VWS V14.01,2013-09-01 02:46:00,
2013-08-31 20:51:00,83.0,46.6,30.04,ESE,112,0.4,0.4,28,0.00,,---,0.00,VWS V14.01,2013-09-01 02:51:00,
2013-08-31 20:56:00,82.8,46.4,30.05,SE,135,0.7,0.7,28,0.00,,---,0.00,VWS V14.01,2013-09-01 02:56:00,
2013-08-31 21:01:00,82.6,46.2,30.04,SE,135,0.9,0.9,28,0.00,,---,0.00,VWS V14.01,2013-09-01 03:01:00,
2013-08-31 21:06:00,82.8,45.4,30.04,SSE,158,1.3,1.3,27,0.00,,---,0.00,VWS V14.01,2013-09-01 03:06:00,
2013-08-31 21:11:00,82.6,46.2,30.04,SE,135,0.0,0.0,28,0.00,,---,0.00,VWS V14.01,2013-09-01 03:11:00,
2013-08-31 21:16:00,82.1,45.8,30.04,SE,135,0.0,0.0,28,0.00,,---,0.00,VWS V14.01,2013-09-01 03:16:00,
2013-08-31 21:21:00,81.5,46.2,30.04,SE,135,0.7,0.7,29,0.00,,---,0.00,VWS V14.01,2013-09-01 03:21:00,
2013-08-31 21:26:00,81.4,47.0,30.04,ESE,112,0.4,0.4,30,0.00,,---,0.00,VWS V14.01,2013-09-01 03:26:00,
2013-08-31 21:31:00,81.2,46.0,30.04,ESE,112,0.7,0.7,29,0.00,,---,0.00,VWS V14.01,2013-09-01 03:31:00,
2013-08-31 21:36:00,81.4,46.1,30.04,ESE,112,0.7,0.7,29,0.00,,---,0.00,VWS V14.01,2013-09-01 03:36:00,
2013-08-31 21:41:00,81.4,45.2,30.04,SE,135,0.4,0.4,28,0.00,,---,0.00,VWS V14.01,2013-09-01 03:41:00,
2013-08-31 21:46:00,81.2,45.0,30.05,SSE,158,0.9,0.9,28,0.00,,---,0.00,VWS V14.01,2013-09-01 03:46:00,
2013-08-31 21:51:00,81.4,45.2,30.05,SSE,158,1.1,1.1,28,0.00,,---,0.00,VWS V14.01,2013-09-01 03:51:00,
2013-08-31 21:56:00,81.4,45.2,30.05,SSE,158,1.8,1.8,28,0.00,,---,0.00,VWS V14.01,2013-09-01 03:56:00,
2013-08-31 22:01:00,81.7,43.5,30.05,SSE,158,1.1,1.1,26,0.00,,---,0.00,VWS V14.01,2013-09-01 04:01:00,
2013-08-31 22:06:00,82.3,44.0,30.05,SSW,202,1.1,1.1,26,0.00,,---,0.00,VWS V14.01,2013-09-01 04:06:00,
2013-08-31 22:11:00,82.6,44.3,30.05,South,180,1.8,1.8,26,0.00,,---,0.00,VWS V14.01,2013-09-01 04:11:00,
2013-08-31 22:16:00,82.8,45.4,30.05,East,90,1.3,1.3,27,0.00,,---,0.00,VWS V14.01,2013-09-01 04:16:00,
2013-08-31 22:21:00,83.0,46.6,30.05,South,180,1.3,1.3,28,0.00,,---,0.00,VWS V14.01,2013-09-01 04:21:00,
2013-08-31 22:26:00,82.8,46.4,30.05,SSE,158,0.4,0.4,28,0.00,,---,0.00,VWS V14.01,2013-09-01 04:26:00,
2013-08-31 22:31:00,82.8,46.4,30.06,South,180,1.8,1.8,28,0.00,,---,0.00,VWS V14.01,2013-09-01 04:31:00,
2013-08-31 22:36:00,82.6,47.2,30.06,SSE,158,0.9,0.9,29,0.00,,---,0.00,VWS V14.01,2013-09-01 04:36:00,
2013-08-31 22:41:00,82.4,47.0,30.06,South,180,0.4,0.4,29,0.00,,---,0.00,VWS V14.01,2013-09-01 04:41:00,
2013-08-31 22:46:00,82.1,46.7,30.06,SSE,158,1.3,1.3,29,0.00,,---,0.00,VWS V14.01,2013-09-01 04:46:00,
2013-08-31 22:51:00,81.9,47.5,30.06,SE,135,2.0,2.0,30,0.00,,---,0.00,VWS V14.01,2013-09-01 04:51:00,
2013-08-31 22:56:00,81.9,47.5,30.06,SSE,158,2.5,2.5,30,0.00,,---,0.00,VWS V14.01,2013-09-01 04:56:00,
2013-08-31 23:01:00,81.9,48.3,30.06,SSE,158,1.6,1.6,31,0.00,,---,0.00,VWS V14.01,2013-09-01 05:01:00,
2013-08-31 23:06:00,81.7,48.2,30.06,South,180,1.1,1.1,31,0.00,,---,0.00,VWS V14.01,2013-09-01 05:06:00,
2013-08-31 23:11:00,81.4,47.9,30.06,SSE,158,1.3,1.3,31,0.00,,---,0.00,VWS V14.01,2013-09-01 05:11:00,
2013-08-31 23:16:00,81.5,48.0,30.06,South,180,2.5,2.5,31,0.00,,---,0.00,VWS V14.01,2013-09-01 05:16:00,
2013-08-31 23:21:00,81.5,48.0,30.06,ESE,112,1.1,1.1,31,0.00,,---,0.00,VWS V14.01,2013-09-01 05:21:00,
2013-08-31 23:26:00,81.4,47.9,30.06,ENE,68,0.0,0.0,31,0.00,,---,0.00,VWS V14.01,2013-09-01 05:26:00,
2013-08-31 23:31:00,81.0,48.4,30.06,NNW,338,2.0,2.0,32,0.00,,---,0.00,VWS V14.01,2013-09-01 05:31:00,
2013-08-31 23:36:00,80.5,47.1,30.07,NE,45,4.9,4.9,31,0.00,,---,0.00,VWS V14.01,2013-09-01 05:36:00,
2013-08-31 23:41:00,80.6,47.2,30.07,NE,45,1.3,1.3,31,0.00,,---,0.00,VWS V14.01,2013-09-01 05:41:00,
2013-08-31 23:46:00,81.2,46.8,30.07,NNE,22,2.2,2.2,30,0.00,,---,0.00,VWS V14.01,2013-09-01 05:46:00,
2013-08-31 23:51:00,81.2,46.8,30.07,NNW,338,1.1,1.1,30,0.00,,---,0.00,VWS V14.01,2013-09-01 05:51:00,
2013-08-31 23:56:00,81.0,46.7,30.07,NW,315,0.4,0.4,30,0.00,,---,0.00,VWS V14.01,2013-09-01 05:56:00,